createdAt,value
2022-12-18T03:45:32.245Z,71.95
2022-12-18T03:49:40.873Z,72.20
2022-12-18T03:53:50.906Z,71.97
2022-12-18T03:57:57.724Z,72.13
2022-12-18T04:02:09.257Z,72.38
2022-12-18T04:06:14.439Z,72.07
2022-12-18T04:10:19.293Z,72.20
2022-12-18T04:14:23.312Z,71.96
2022-12-18T04:18:31.877Z,72.07
2022-12-18T04:22:37.929Z,72.25
2022-12-18T04:26:40.970Z,72.16
2022-12-18T04:30:51.998Z,72.29
2022-12-18T04:34:58.118Z,72.41
2022-12-18T04:39:01.516Z,72.36
2022-12-18T04:43:05.299Z,72.34
2022-12-18T04:47:08.749Z,72.33
2022-12-18T04:51:13.162Z,72.25
2022-12-18T04:55:16.269Z,72.22
2022-12-18T04:59:19.321Z,72.08
2022-12-18T05:03:22.443Z,72.12
2022-12-18T05:07:27.085Z,72.16
2022-12-18T05:11:30.258Z,72.27
2022-12-18T05:15:34.482Z,72.02
2022-12-18T05:19:40.090Z,71.96
2022-12-18T05:23:44.648Z,72.04
2022-12-18T05:27:48.113Z,72.26
2022-12-18T05:31:51.159Z,72.07
2022-12-18T05:35:55.245Z,72.32
2022-12-18T05:39:59.736Z,72.04
2022-12-18T05:44:02.785Z,72.34
2022-12-18T05:48:06.801Z,72.08
2022-12-18T05:52:09.937Z,72.16
2022-12-18T05:56:16.681Z,71.98
2022-12-18T06:00:19.974Z,71.93
2022-12-18T06:04:23.029Z,72.16
2022-12-18T06:08:26.021Z,72.06
2022-12-18T06:12:30.494Z,72.01
2022-12-18T06:16:34.424Z,72.09
2022-12-18T06:20:40.561Z,72.40
2022-12-18T06:24:43.591Z,72.60
2022-12-18T06:28:48.155Z,72.66
2022-12-18T06:32:56.327Z,72.69
2022-12-18T06:37:00.373Z,72.85
2022-12-18T06:41:07.827Z,72.71
2022-12-18T06:45:15.547Z,72.81
2022-12-18T06:49:18.567Z,72.75
2022-12-18T06:53:21.575Z,72.81
2022-12-18T06:57:24.596Z,72.66
2022-12-18T07:01:29.262Z,72.85
2022-12-18T07:05:32.538Z,72.90
2022-12-18T07:09:35.926Z,72.83
2022-12-18T07:13:39.449Z,72.77
2022-12-18T07:17:44.058Z,72.90
2022-12-18T07:21:47.082Z,72.97
2022-12-18T07:25:50.170Z,72.62
2022-12-18T07:29:53.780Z,73.17
2022-12-18T07:33:58.401Z,72.92
2022-12-18T07:38:04.368Z,73.04
2022-12-18T07:42:24.746Z,73.00
2022-12-18T07:46:28.013Z,73.14
2022-12-18T07:50:32.669Z,72.99
2022-12-18T07:54:35.725Z,72.96
2022-12-18T07:58:39.250Z,73.30
2022-12-18T08:02:42.661Z,73.04
2022-12-18T08:06:48.303Z,73.15
2022-12-18T08:10:51.630Z,73.17
2022-12-18T08:14:54.701Z,73.10
2022-12-18T08:18:58.135Z,73.35
2022-12-18T08:23:02.577Z,73.22
2022-12-18T08:27:28.435Z,73.26
2022-12-18T08:31:31.300Z,73.48
2022-12-18T08:35:42.485Z,73.58
2022-12-18T08:39:49.566Z,73.65
2022-12-18T08:44:10.707Z,73.71
2022-12-18T08:48:16.658Z,73.87
2022-12-18T08:52:23.685Z,73.48
2022-12-18T08:56:28.180Z,73.38
2022-12-18T09:00:33.881Z,73.78
2022-12-18T09:04:36.917Z,73.69
2022-12-18T09:08:40.208Z,73.87
2022-12-18T09:12:45.017Z,73.67
2022-12-18T09:16:48.198Z,73.74
2022-12-18T09:20:52.965Z,73.25
2022-12-18T09:26:00.974Z,73.44
2022-12-18T09:30:06.556Z,73.52
2022-12-18T09:34:09.746Z,73.49
2022-12-18T09:38:15.248Z,73.33
2022-12-18T09:42:23.838Z,73.41
2022-12-18T09:46:32.735Z,73.63
2022-12-18T09:50:40.992Z,73.53
2022-12-18T09:54:45.933Z,73.71
2022-12-18T09:58:55.431Z,73.67
2022-12-18T10:03:03.785Z,73.78
2022-12-18T10:07:15.881Z,73.36
2022-12-18T10:11:31.150Z,73.24
2022-12-18T10:15:42.421Z,73.16
2022-12-18T10:19:52.689Z,73.19
2022-12-18T10:24:05.117Z,73.26
2022-12-18T10:28:14.039Z,73.26
2022-12-18T10:32:20.413Z,72.93
2022-12-18T10:36:25.474Z,72.87
2022-12-18T10:40:28.753Z,73.22
2022-12-18T10:44:31.730Z,73.26
2022-12-18T10:48:38.465Z,72.97
2022-12-18T10:52:45.246Z,73.13
2022-12-18T10:56:51.435Z,73.24
2022-12-18T11:01:09.863Z,72.41
2022-12-18T11:05:27.700Z,72.06
2022-12-18T11:09:34.307Z,71.61
2022-12-18T11:13:37.249Z,72.27
2022-12-18T11:17:41.307Z,72.13
2022-12-18T11:21:44.631Z,72.32
2022-12-18T11:25:56.879Z,72.47
2022-12-18T11:30:10.865Z,73.09
2022-12-18T11:34:34.285Z,72.91
2022-12-18T11:38:39.671Z,72.66
2022-12-18T11:42:50.329Z,72.20
2022-12-18T11:46:58.118Z,72.26
2022-12-18T11:51:04.014Z,72.02
2022-12-18T11:55:16.541Z,72.31
2022-12-18T11:59:31.387Z,72.12
2022-12-18T12:03:53.511Z,71.97
2022-12-18T12:08:07.221Z,71.39
2022-12-18T12:12:28.433Z,71.38
2022-12-18T12:16:39.732Z,71.34
2022-12-18T12:20:51.897Z,71.67
2022-12-18T12:25:07.726Z,71.67
2022-12-18T12:29:31.171Z,71.72
2022-12-18T12:33:45.223Z,71.29
2022-12-18T12:38:01.991Z,71.52
2022-12-18T12:42:24.854Z,71.59
2022-12-18T12:46:28.697Z,71.39
2022-12-18T12:50:37.583Z,71.29
2022-12-18T12:54:41.448Z,71.45
2022-12-18T12:58:53.805Z,71.66
2022-12-18T13:03:03.899Z,71.61
2022-12-18T13:07:18.294Z,71.62
2022-12-18T13:12:00.574Z,71.57
2022-12-18T13:16:08.638Z,71.91
2022-12-18T13:20:15.443Z,71.93
2022-12-18T13:24:27.248Z,72.08
2022-12-18T13:28:54.959Z,72.10
2022-12-18T13:33:51.031Z,72.32
2022-12-18T13:38:23.908Z,72.27
2022-12-18T13:43:02.152Z,72.30
2022-12-18T13:47:06.877Z,72.39
2022-12-18T13:51:13.101Z,72.25
2022-12-18T13:55:21.095Z,72.25
2022-12-18T13:59:26.421Z,72.45
2022-12-18T14:03:32.191Z,72.42
2022-12-18T14:07:41.961Z,72.96
2022-12-18T14:11:51.555Z,72.92
2022-12-18T14:15:55.811Z,72.91
2022-12-18T14:19:59.754Z,73.12
2022-12-18T14:24:08.154Z,72.79
2022-12-18T14:28:16.554Z,73.05
2022-12-18T14:32:21.135Z,73.13
2022-12-18T14:36:26.564Z,73.55
2022-12-18T14:40:29.678Z,73.45
2022-12-18T14:44:44.122Z,73.73
2022-12-18T14:48:53.588Z,73.22
2022-12-18T14:52:56.567Z,73.55
2022-12-18T14:57:03.362Z,73.64
2022-12-18T15:01:08.881Z,73.35
2022-12-18T15:05:20.499Z,73.44
2022-12-18T15:09:25.449Z,73.64
2022-12-18T15:13:29.320Z,73.67
2022-12-18T15:17:33.813Z,74.16
2022-12-18T15:21:36.785Z,74.08
2022-12-18T15:25:39.833Z,73.91
2022-12-18T15:29:43.467Z,73.94
2022-12-18T15:34:04.121Z,73.86
2022-12-18T15:38:08.896Z,74.05
2022-12-18T15:42:30.106Z,74.36
2022-12-18T15:46:33.131Z,74.30
2022-12-18T15:50:37.580Z,74.31
2022-12-18T15:54:57.829Z,74.34
2022-12-18T15:59:01.662Z,74.34
2022-12-18T16:03:05.773Z,74.71
2022-12-18T16:07:16.055Z,74.89
2022-12-18T16:11:39.829Z,74.66
2022-12-18T16:15:42.796Z,74.86
2022-12-18T16:19:45.993Z,74.77
2022-12-18T16:23:50.619Z,74.57
2022-12-18T16:27:56.021Z,74.93
2022-12-18T16:32:00.378Z,74.68
2022-12-18T16:36:03.420Z,74.72
2022-12-18T16:40:15.719Z,74.90
2022-12-18T16:44:21.946Z,75.20
2022-12-18T16:48:25.641Z,75.12
2022-12-18T16:52:30.358Z,75.21
2022-12-18T16:56:38.208Z,75.08
2022-12-18T17:00:45.668Z,75.19
2022-12-18T17:04:48.968Z,74.91
2022-12-18T17:08:57.012Z,74.90
2022-12-18T17:13:08.485Z,74.96
2022-12-18T17:17:22.828Z,75.16
2022-12-18T17:21:27.937Z,74.84
2022-12-18T17:25:31.879Z,75.05
2022-12-18T17:29:41.144Z,75.02
2022-12-18T17:33:51.887Z,75.18
2022-12-18T17:37:56.652Z,75.30
2022-12-18T17:42:02.886Z,75.38
2022-12-18T17:46:09.847Z,75.28
2022-12-18T17:50:14.279Z,75.22
2022-12-18T17:54:27.124Z,75.33
2022-12-18T17:58:32.366Z,75.03
2022-12-18T18:02:38.052Z,75.26
2022-12-18T18:06:41.870Z,75.48
2022-12-18T18:10:45.162Z,75.56
2022-12-18T18:14:48.555Z,75.21
2022-12-18T18:18:52.984Z,75.19
2022-12-18T18:22:56.383Z,75.40
2022-12-18T18:27:00.589Z,75.51
2022-12-18T18:31:06.114Z,75.74
2022-12-18T18:35:19.496Z,75.73
2022-12-18T18:39:34.345Z,75.78
2022-12-18T18:43:37.742Z,76.09
2022-12-18T18:47:41.811Z,76.22
2022-12-18T18:51:46.152Z,76.25
2022-12-18T18:56:03.971Z,76.18
2022-12-18T19:00:13.981Z,76.22
2022-12-18T19:04:17.608Z,76.56
2022-12-18T19:08:22.011Z,76.60
2022-12-18T19:12:42.584Z,77.01
2022-12-18T19:16:45.966Z,77.04
2022-12-18T19:20:57.334Z,77.10
2022-12-18T19:25:01.983Z,77.30
2022-12-18T19:29:07.569Z,77.56
2022-12-18T19:33:41.736Z,77.76
2022-12-18T19:37:35.696Z,77.64
2022-12-18T19:41:40.922Z,77.67
2022-12-18T19:45:44.211Z,77.69
2022-12-18T19:49:47.168Z,77.70
2022-12-18T19:53:54.965Z,77.97
2022-12-18T19:58:02.571Z,78.39
2022-12-18T20:02:06.010Z,78.35
2022-12-18T20:06:11.725Z,78.34
2022-12-18T20:10:15.580Z,78.39
2022-12-18T20:14:23.408Z,78.41
2022-12-18T20:18:26.780Z,78.06
2022-12-18T20:22:29.919Z,78.28
2022-12-18T20:26:33.196Z,78.69
2022-12-18T20:30:38.342Z,78.30
2022-12-18T20:34:42.610Z,78.46
2022-12-18T20:38:46.309Z,78.30
2022-12-18T20:42:50.164Z,78.15
2022-12-18T20:47:00.280Z,78.05
2022-12-18T20:51:09.171Z,78.20
2022-12-18T20:55:15.004Z,78.21
2022-12-18T20:59:19.892Z,77.94
2022-12-18T21:03:24.618Z,77.84
2022-12-18T21:07:28.188Z,77.74
2022-12-18T21:11:50.289Z,77.75
2022-12-18T21:15:54.841Z,77.79
2022-12-18T21:19:59.634Z,77.90
2022-12-18T21:24:03.107Z,77.63
2022-12-18T21:28:07.080Z,77.52
2022-12-18T21:32:11.852Z,77.20
2022-12-18T21:36:16.190Z,77.38
2022-12-18T21:40:19.450Z,77.42
2022-12-18T21:44:24.069Z,77.49
2022-12-18T21:48:27.275Z,77.47
2022-12-18T21:52:32.980Z,77.40
2022-12-18T21:56:48.629Z,77.41
2022-12-18T22:00:52.672Z,77.38
2022-12-18T22:04:56.279Z,77.51
2022-12-18T22:09:01.706Z,77.32
2022-12-18T22:13:05.369Z,77.63
2022-12-18T22:17:09.922Z,77.80
2022-12-18T22:21:28.799Z,77.57
2022-12-18T22:25:34.255Z,77.75
2022-12-18T22:29:56.122Z,77.82
2022-12-18T22:33:59.510Z,77.63
2022-12-18T22:38:02.855Z,77.84
2022-12-18T22:42:07.391Z,77.88
2022-12-18T22:46:16.161Z,77.91
2022-12-18T22:50:19.400Z,78.11
2022-12-18T22:54:23.226Z,78.14
2022-12-18T22:58:27.494Z,78.27
2022-12-18T23:02:30.535Z,78.43
2022-12-18T23:06:33.702Z,78.61
2022-12-18T23:10:40.083Z,79.01
2022-12-18T23:14:44.796Z,79.36
2022-12-18T23:18:47.932Z,79.45
2022-12-18T23:22:51.033Z,79.59
2022-12-18T23:26:54.623Z,79.46
2022-12-18T23:31:06.606Z,79.49
2022-12-18T23:35:10.146Z,79.22
2022-12-18T23:39:28.685Z,79.23
2022-12-18T23:43:32.941Z,79.33
2022-12-18T23:47:37.214Z,79.08
2022-12-18T23:51:40.296Z,79.16
2022-12-18T23:55:45.433Z,79.08
2022-12-18T23:59:49.321Z,78.86
